Latest Coastal Weather Observations for Coolangatta (QLD)

IDN60701

Issued at 8:15 am EDT Tuesday 21 October 2014 (issued every 10 minutes, with the page automatically refreshed every 10 minutes)

About coastal observations | Map of coastal stations | Coastal observations for NSW | Marine services | Other Formats
Station Details ID: 040717 Name: COOLANGATTA Lat: -28.17 Lon: 153.51 Height: 4.0 m
Data from the previous 72 hours. | See also: Recent months at Coolangatta (QLD)
Date/Time
EDT
Temp

°C
Wind Pressure Rain
since 9am
mm
Weather Cloud Vis
km
Sea
Height
m
Swell
Dir
 
Speed
knots
Gust
knots
hPa Trend Height
m
Period
s
Dir
21/08:00am 20.2 S 12 18 1027.0 - 1.4 - Cloudy 10 - - - -
21/07:30am 19.4 S 11 15 1026.8 - 1.4 - Cloudy 10 - - - -
21/07:00am 19.1 S 11 17 1026.6 - 1.4 - Cloudy 10 - - - -
21/06:30am 18.8 S 10 16 1026.2 - 1.4 - Cloudy 10 - - - -
21/06:00am 18.7 S 9 14 1025.8 - 1.4 - Cloudy 10 - - - -
21/05:30am 18.4 SSW 8 10 1025.7 - 1.4 - Partly cloudy 10 - - - -
21/05:00am 18.2 S 8 11 1025.5 - 1.4 - Partly cloudy 10 - - - -
21/04:30am 18.1 S 9 12 1025.4 - 1.4 - Partly cloudy 9 - - - -
21/04:24am 18.1 S 8 12 1025.5 - 1.4 - Partly cloudy 10 - - - -
21/04:18am 17.9 S 7 9 1025.6 - 1.4 - Partly cloudy 10 - - - -
21/04:14am 18.0 S 6 8 1025.7 - 1.4 - Partly cloudy 10 - - - -
21/04:00am 18.2 S 11 16 1025.6 - 1.2 Rain Partly cloudy 4 - - - -
21/03:54am 18.4 S 11 16 1025.7 - 0.0 - Partly cloudy 6 - - - -
21/03:30am 19.1 SSW 9 13 1025.4 - 0.0 - Partly cloudy 10 - - - -
21/03:00am 18.5 SSW 7 10 1025.4 - 0.0 - Partly cloudy 10 - - - -
21/02:30am 18.9 SSW 8 11 1025.8 - 0.0 - Partly cloudy 10 - - - -
21/02:00am 18.9 SSW 8 10 1026.0 - 0.0 - Partly cloudy 10 - - - -
21/01:30am 18.7 S 7 11 1026.3 - 0.0 - - 10 - - - -
21/01:00am 18.8 S 7 10 1026.5 - 0.0 - - 10 - - - -
21/12:30am 19.1 S 7 12 1026.9 - 0.0 - Partly cloudy 10 - - - -
21/12:00am 19.1 S 8 11 1027.1 - 0.0 - - 10 - - - -
 
Date/Time
EDT
Temp

°C
Wind Pressure Rain
since 9am
mm
Weather Cloud Vis
km
Sea
Height
m
Swell
Dir
 
Speed
knots
Gust
knots
hPa Trend Height
m
Period
s
Dir
20/11:30pm 19.0 S 7 10 1027.2 - 0.0 - - 10 - - - -
20/11:00pm 19.0 SSW 6 10 1027.3 - 0.0 - - 10 - - - -
20/10:30pm 19.3 S 8 11 1027.2 - 0.0 - - 10 - - - -
20/10:00pm 19.3 S 8 11 1027.2 - 0.0 - Mostly clear 10 - - - -
20/09:30pm 19.4 S 8 13 1027.1 - 0.0 - Partly cloudy 10 - - - -
20/09:00pm 19.4 S 8 11 1026.9 - 0.0 - Partly cloudy 10 - - - -
20/08:30pm 19.4 S 10 15 1026.3 - 0.0 - - 10 - - - -
20/08:00pm 19.5 S 9 12 1025.9 - 0.0 - - 10 - - - -
20/07:30pm 19.9 SSE 9 12 1025.4 - 0.0 - - 10 - - - -
20/07:00pm 20.4 SE 9 11 1024.9 - 0.0 - - 10 - - - -
20/06:30pm 21.5 ESE 7 9 1024.4 - 0.0 - - 10 - - - -
20/06:00pm 22.2 E 7 9 1024.0 - 0.0 - - 10 - - - -
20/05:30pm 22.5 NE 7 10 1023.6 - 0.0 - - 10 - - - -
20/05:00pm 22.3 NE 5 8 1023.4 - 0.0 - - 10 - - - -
20/04:30pm 22.8 NNE 7 9 1023.0 - 0.0 - - 10 - - - -
20/04:00pm 22.8 NNE 8 11 1022.9 - 0.0 - - 10 - - - -
20/03:30pm 22.8 NNE 9 11 1023.0 - 0.0 - - 10 - - - -
20/03:00pm 23.2 NE 9 12 1023.2 - 0.0 - - 10 - - - -
20/02:30pm 22.9 NE 10 13 1023.4 - 0.0 - - 10 - - - -
20/02:00pm 23.6 NE 11 14 1023.7 - 0.0 - - 10 - - - -
20/01:30pm 22.7 NE 11 14 1024.0 - 0.0 - - 10 - - - -
20/01:00pm 23.0 NNE 13 16 1024.1 - 0.0 - Mostly clear 10 - - - -
20/12:30pm 22.4 NNE 13 16 1024.4 - 0.0 - - 10 - - - -
20/12:00pm 22.9 NNE 13 16 1024.8 - 0.0 - - 10 - - - -
20/11:30am 22.4 NNE 13 15 1025.0 - 0.0 - - 10 - - - -
20/11:00am 22.4 N 12 14 1025.5 - 0.0 - - 10 - - - -
20/10:30am 22.4 N 11 14 1025.6 - 0.0 - - 10 - - - -
20/10:00am 22.2 N 11 13 1025.8 - 0.0 - - 10 - - - -
20/09:30am 21.8 N 10 13 1025.6 - 0.0 - - 10 - - - -
20/09:00am 21.3 NNW 8 11 1025.6 - 0.0 - - 10 - - - -
20/08:30am 20.6 NW 6 9 1025.6 - 0.0 - - 10 - - - -
20/08:00am 18.3 WSW 3 4 1025.7 - 0.0 - - 10 - - - -
20/07:30am 15.4 CALM 0 0 1025.4 - 0.0 - - 10 - - - -
20/07:00am 13.9 CALM 0 0 1025.3 - 0.0 - - 10 - - - -
20/06:30am 12.0 SW 3 4 1025.0 - 0.0 - - 10 - - - -
20/06:24am 11.6 SW 3 4 1025.0 - 0.0 - - 10 - - - -
20/06:00am 11.6 CALM 0 0 1024.9 - 0.0 - - 5 - - - -
20/05:58am 11.7 CALM 0 0 1024.9 - 0.0 - - 6 - - - -
20/05:30am 11.7 SW 2 3 1024.9 - 0.0 - - 9 - - - -
20/05:00am 12.4 SW 1 3 1024.8 - 0.0 - - 10 - - - -
20/04:30am 12.1 CALM 0 0 1024.6 - 0.0 - - 10 - - - -
20/04:00am 12.0 SW 2 4 1024.7 - 0.0 - Mostly clear 10 - - - -
20/03:30am 12.5 SW 2 4 1024.8 - 0.0 - Partly cloudy 10 - - - -
20/03:00am 12.6 SSW 3 4 1025.0 - 0.0 - Partly cloudy 10 - - - -
20/02:30am 12.2 SW 3 4 1025.4 - 0.0 - Partly cloudy 10 - - - -
20/02:00am 12.5 SSW 3 4 1025.8 - 0.0 - Partly cloudy 10 - - - -
20/01:30am 13.4 SSW 2 4 1026.1 - 0.0 - - 10 - - - -
20/01:00am 13.5 SW 2 4 1026.3 - 0.0 - Partly cloudy 10 - - - -
20/12:30am 13.6 CALM 0 0 1026.7 - 0.0 - - 10 - - - -
20/12:00am 13.7 SW 3 4 1026.9 - 0.0 - - 10 - - - -
 
Date/Time
EDT
Temp

°C
Wind Pressure Rain
since 9am
mm
Weather Cloud Vis
km
Sea
Height
m
Swell
Dir
 
Speed
knots
Gust
knots
hPa Trend Height
m
Period
s
Dir
19/11:30pm 14.1 CALM 0 0 1027.0 - 0.0 - - 10 - - - -
19/11:00pm 14.3 SW 4 6 1027.0 - 0.0 - Partly cloudy 10 - - - -
19/10:30pm 14.6 WSW 4 6 1026.9 - 0.0 - - 10 - - - -
19/10:00pm 15.6 WSW 6 7 1026.9 - 0.0 - - 10 - - - -
19/09:30pm 16.1 WSW 6 6 1026.8 - 0.0 - - 10 - - - -
19/09:00pm 15.8 WSW 4 6 1026.4 - 0.0 - - 10 - - - -
19/08:30pm 17.2 ESE 5 7 1026.2 - 0.0 - - 10 - - - -
19/08:00pm 17.9 ESE 5 7 1025.9 - 0.0 - - 10 - - - -
19/07:30pm 19.2 ESE 7 8 1025.6 - 0.0 - - 10 - - - -
19/07:00pm 19.8 ESE 9 11 1025.3 - 0.0 - - 10 - - - -
19/06:30pm 20.7 SE 10 13 1025.1 - 0.0 - - 10 - - - -
19/06:00pm 21.3 ESE 11 14 1024.8 - 0.0 - - 10 - - - -
19/05:30pm 21.9 ESE 11 15 1024.5 - 0.0 - - 10 - - - -
19/05:00pm 22.1 ESE 13 16 1024.4 - 0.0 - - 10 - - - -
19/04:30pm 22.6 SE 13 17 1024.4 - 0.0 - - 10 - - - -
19/04:00pm 22.8 ESE 13 17 1024.5 - 0.0 - - 10 - - - -
19/03:30pm 23.3 ESE 13 19 1024.7 - 0.0 - - 10 - - - -
19/03:00pm 22.9 ESE 14 20 1025.0 - 0.0 - - 10 - - - -
19/02:30pm 23.8 SE 15 20 1025.5 - 0.0 - Partly cloudy 10 - - - -
19/02:00pm 23.4 SE 16 21 1026.0 - 0.0 - Partly cloudy 10 - - - -
19/01:30pm 24.2 SE 15 20 1026.2 - 0.0 - Partly cloudy 10 - - - -
19/01:00pm 24.2 ESE 15 19 1026.5 - 0.0 - Mostly clear 10 - - - -
19/12:30pm 24.2 ESE 17 22 1026.8 - 0.0 - Partly cloudy 10 - - - -
19/12:00pm 24.2 SE 15 20 1027.0 - 0.0 - - 10 - - - -
19/11:30am 23.3 SE 14 20 1027.4 - 0.0 - Partly cloudy 10 - - - -
19/11:00am 23.3 SE 11 16 1027.8 - 0.0 - Partly cloudy 10 - - - -
19/10:30am 23.2 SE 13 17 1028.1 - 0.0 - Partly cloudy 10 - - - -
19/10:00am 20.8 S 7 10 1028.4 - 0.0 - Cloudy 10 - - - -
19/09:30am 21.4 S 9 14 1028.4 - 0.0 - - 10 - - - -
19/09:00am 21.1 S 10 14 1028.2 - 0.0 - - 10 - - - -
19/08:30am 20.4 SSW 7 10 1027.9 - 0.0 - Partly cloudy 10 - - - -
19/08:00am 18.8 SSW 6 8 1027.8 - 0.0 - - 10 - - - -
19/07:30am 18.6 SW 4 6 1027.5 - 0.0 - Partly cloudy 10 - - - -
19/07:00am 16.5 WSW 4 5 1027.2 - 0.0 - - 10 - - - -
19/06:30am 15.3 SSW 5 7 1026.9 - 0.0 - - 10 - - - -
19/06:00am 15.6 SSW 6 7 1026.6 - 0.0 - - 10 - - - -
19/05:30am 16.0 SSW 6 8 1026.4 - 0.0 - - 10 - - - -
19/05:00am 16.2 SSW 6 8 1026.2 - 0.0 - - 10 - - - -
19/04:30am 16.7 SSW 6 8 1026.1 - 0.0 - Partly cloudy 10 - - - -
19/04:00am 17.4 SSW 6 9 1026.1 - 0.0 - Mostly cloudy 10 - - - -
19/03:30am 17.4 SSW 6 8 1026.0 - 0.0 - Cloudy 10 - - - -
19/03:00am 17.3 SSW 6 8 1026.2 - 0.0 - Partly cloudy 10 - - - -
19/02:30am 16.7 SSW 5 6 1026.3 - 0.0 - Partly cloudy 10 - - - -
19/02:00am 17.1 SW 7 8 1026.6 - 0.0 - Partly cloudy 10 - - - -
19/01:30am 16.9 SSW 7 9 1027.0 - 0.0 - Partly cloudy 10 - - - -
19/01:00am 17.0 S 6 9 1027.1 - 0.0 - - 10 - - - -
19/12:30am 16.8 S 6 9 1027.5 - 0.0 - - 10 - - - -
19/12:00am 17.0 S 5 7 1027.6 - 0.0 - Partly cloudy 10 - - - -
 
Date/Time
EDT
Temp

°C
Wind Pressure Rain
since 9am
mm
Weather Cloud Vis
km
Sea
Height
m
Swell
Dir
 
Speed
knots
Gust
knots
hPa Trend Height
m
Period
s
Dir
18/11:30pm 17.6 S 7 11 1027.8 - 0.0 - Partly cloudy 10 - - - -
18/11:00pm 17.6 S 5 7 1027.9 - 0.0 - Partly cloudy 10 - - - -
18/10:30pm 17.9 S 7 10 1027.9 - 0.0 - Partly cloudy 10 - - - -
18/10:00pm 17.7 SSW 7 9 1027.7 - 0.0 - Mostly clear 10 - - - -
18/09:30pm 17.6 SSW 7 9 1027.5 - 0.0 - Partly cloudy 10 - - - -
18/09:00pm 17.7 SSW 7 10 1027.4 - 0.0 - - 10 - - - -
18/08:30pm 18.1 SSW 7 10 1027.3 - 0.0 - Partly cloudy 10 - - - -
18/08:00pm 18.1 S 7 10 1027.0 - 0.0 - Partly cloudy 10 - - - -
18/07:30pm 18.8 S 10 13 1026.8 - 0.0 - Partly cloudy 10 - - - -
18/07:00pm 18.6 S 8 10 1026.4 - 0.0 - - 10 - - - -
18/06:30pm 19.0 S 9 13 1025.8 - 0.0 - Partly cloudy 10 - - - -
18/06:00pm 19.3 SSE 11 17 1025.5 - 0.0 - Partly cloudy 10 - - - -
18/05:30pm 20.5 SSE 13 21 1025.2 - 0.0 - Partly cloudy 10 - - - -
18/05:00pm 21.3 SSE 13 19 1025.0 - 0.0 - - 10 - - - -
18/04:30pm 21.8 SSE 15 22 1024.9 - 0.0 - Cloudy 10 - - - -
18/04:00pm 22.2 SSE 18 24 1024.8 - 0.0 - Mostly cloudy 10 - - - -
18/03:30pm 23.2 SSE 16 21 1024.8 - 0.0 - Partly cloudy 10 - - - -
18/03:00pm 22.1 SSE 16 21 1024.9 - 0.0 - Cloudy 10 - - - -
18/02:30pm 23.5 SSE 16 21 1025.1 - 0.0 - Partly cloudy 10 - - - -
18/02:00pm 23.2 SSE 15 20 1025.4 - 0.0 - Partly cloudy 10 - - - -
18/01:30pm 23.0 SSE 14 20 1025.6 - 0.0 - Cloudy 10 - - - -
18/01:00pm 24.1 SSE 17 22 1025.7 - 0.0 - Mostly clear 10 - - - -
18/12:30pm 24.9 SE 15 22 1025.7 - 0.0 - Partly cloudy 10 - - - -
18/12:00pm 24.1 SSE 12 17 1026.1 - 0.0 - Partly cloudy 10 - - - -
18/11:30am 23.5 SSE 13 16 1026.3 - 0.0 - Partly cloudy 10 - - - -
18/11:00am 22.5 S 14 19 1026.5 - 0.0 - Partly cloudy 10 - - - -
18/10:30am 22.6 S 14 19 1026.5 - 0.0 - Partly cloudy 10 - - - -
18/10:00am 21.8 SSW 10 13 1026.6 - 0.2 - Mostly clear 10 - - - -
18/09:30am 20.7 SSW 11 18 1026.3 - 0.2 - Partly cloudy 10 - - - -

Other Formats:

Comma delimited format used in spreadsheet applications
http://www.bom.gov.au/fwo/IDN60701/IDN60701.94592.axf

JavaScript Object Notation format (JSON) in row-major order
http://www.bom.gov.au/fwo/IDN60701/IDN60701.94592.json